LIRQLIEE

Guest
Details From LIRQ - Firenze
To LIEE - Cagliari Elmas
Flight Number -
Tags Generated
Created
Modified
Stats Distance 290 nm / 536 km
Max Altitude 0 ft / 0 m
Waypoints 3
Social Downloads 0
Likes 0
Share VATSIM

Download

Looking for another format? Having issues loading an existing format? Contact us
Advertisement - Login to hide

Notes

Generated

Route

LIRQ CAG01 LIEE

ID Type Via Altitude Latitude Longitude Leg Dist Tot Dist Heading (true) Name
O LIRQ APT - 0 ft / 0 m 43.80507˚ 11.19741˚ - 0 nm - -
CAG01 FIX - 0 ft / 0 m 39.26216˚ 9.04088˚ 289 nm 289 nm 200° / 199° -
O LIEE APT - 0 ft / 0 m 39.26081˚ 9.04347˚ 0 nm 289 nm 124° / 124° -

Altitude Profile

Advertisement - Login to hide

Weather


0- 5 10 15 20 25 30 35+ Temperature / ° C

Clouds and Precipitation
Forecast for 2018-05-23 06:00 UTC. Updated 24 minutes ago

Ground ~20,000 ft ~40,000 ft Winds

LIRQ

Details ICAO LIRQ (FLR)
Name Firenze
Region Italy
Timezone Europe/Rome (UTC+2.0)
Stats Elevation 142 ft / 43 m (AMSL)
Location 43.809984° 11.205118°
Runways 1
Magnetic Variation 2.923° E

METAR

LIRQ 230320Z VRB02KT 5000 BR BKN004 15/15 Q1014

Decode

TAF

TAF LIRQ 222300Z 2300/2324 VRB05KT 9999 SCT030 TEMPO 2312/2318 TSRA

Decode

Departure Runways

ID Width Length Bearing (true) Bearing (mag) Surface Threshold Offset Overrun Length
05 98 ft / 30 m 5,420 ft / 1,652 m 48.52° 45.60° Asphalt 492 ft / 150 m 0 ft / 0 m
23 98 ft / 30 m 5,420 ft / 1,652 m 228.53° 225.61° Asphalt 2,287 ft / 697 m 0 ft / 0 m

LIEE

Details ICAO LIEE (CAG)
Name Cagliari Elmas
Region Italy
Timezone Europe/Rome (UTC+2.0)
Stats Elevation 13 ft / 4 m (AMSL)
Location 39.251475° 9.054291°
Runways 1
Magnetic Variation 2.342° E

METAR

LIEE 230320Z 34003KT 310V010 9999 SCT040 17/15 Q1015

Decode

TAF

TAF LIEE 222300Z 2300/2324 33010KT 9999 SCT030= TAF LIEO 222300Z 2300/2324 VRB06KT 9999 SCT030 BECMG 2310/2312 06010KT BECMG 2318/2320 VRB04KT

Decode

Destination Runways

ID Width Length Bearing (true) Bearing (mag) Surface Threshold Offset Overrun Length
14 148 ft / 45 m 9,157 ft / 2,791 m 138.08° 135.74° Asphalt 0 ft / 0 m 187 ft / 57 m
32 148 ft / 45 m 9,157 ft / 2,791 m 318.09° 315.75° Asphalt 0 ft / 0 m 0 ft / 0 m

Approach Navaids

Runway Type Ident Frequency Range Bearing (true) Bearing (mag) Slope Elevation
32 Localiser IEL 109.50 MHz 18 nm / 33 km 318.12° 315.77° - 7 ft / 2 m (AMSL)
32 Glidescope IEL 109.50 MHz 10 nm / 19 km 318.08° 315.74° 3.00° 9 ft / 3 m (AMSL)
32 DME IEL 109.50 MHz 18 nm / 33 km - - - 26 ft / 8 m (AMSL)

Popular Alternatives